Time;durP1;ratioP1;P1;durP2;ratioP2;P2;SDS_P1;SDS_P2;PMS_P1;PMS_P2;Temp;Humidity;BMP_temperature;BMP_pressure;BME280_temperature;BME280_humidity;BME280_pressure;Samples;Min_cycle;Max_cycle;Signal;HPM_P1;HPM_P2
2023/12/24 00:02:14;;;;;;;13.20;6.07;;;6.00;58.60;;;;;;5090362;28;20324;-84
2023/12/24 00:04:41;;;;;;;10.70;5.47;;;5.80;58.50;;;;;;5108638;28;20629;-84
2023/12/24 00:07:06;;;;;;;9.50;5.30;;;5.80;58.50;;;;;;5083145;28;20172;-84
2023/12/24 00:09:32;;;;;;;11.83;5.60;;;5.90;58.80;;;;;;5113107;28;20593;-83
2023/12/24 00:11:58;;;;;;;14.83;5.87;;;6.00;58.80;;;;;;5089231;28;20212;-83
2023/12/24 00:14:23;;;;;;;12.73;6.80;;;5.90;58.70;;;;;;5112207;28;20211;-83
2023/12/24 00:16:49;;;;;;;10.27;6.80;;;6.00;58.70;;;;;;5093523;28;20187;-84
2023/12/24 00:19:14;;;;;;;14.70;6.67;;;5.90;58.50;;;;;;5094652;28;20594;-83
2023/12/24 00:21:42;;;;;;;10.77;6.97;;;5.90;58.30;;;;;;5094186;28;20343;-85
2023/12/24 00:24:07;;;;;;;14.60;5.93;;;6.00;58.50;;;;;;5108268;28;20202;-85
2023/12/24 00:26:33;;;;;;;17.77;7.17;;;6.00;59.00;;;;;;5092769;28;20677;-84
2023/12/24 00:28:58;;;;;;;13.33;6.47;;;6.00;58.20;;;;;;5102578;28;20180;-84
2023/12/24 00:31:24;;;;;;;11.57;5.47;;;5.90;57.90;;;;;;5094358;28;20237;-85
2023/12/24 00:33:50;;;;;;;10.57;5.63;;;5.90;58.00;;;;;;5081289;28;20200;-84
2023/12/24 00:36:15;;;;;;;11.47;5.97;;;6.00;58.20;;;;;;5084991;28;20179;-84
2023/12/24 00:38:41;;;;;;;12.27;5.87;;;6.00;58.20;;;;;;5083820;28;20211;-85
2023/12/24 00:41:06;;;;;;;10.93;5.80;;;5.90;58.00;;;;;;5083884;28;20207;-83
2023/12/24 00:43:33;;;;;;;10.30;5.40;;;5.90;57.90;;;;;;5113057;28;20184;-84
2023/12/24 00:45:58;;;;;;;13.00;5.50;;;5.80;57.80;;;;;;5094382;28;20176;-84
2023/12/24 00:48:24;;;;;;;11.87;4.70;;;6.00;57.80;;;;;;5110200;28;20175;-84
2023/12/24 00:50:49;;;;;;;10.83;4.93;;;5.90;57.60;;;;;;5092357;28;20213;-84
2023/12/24 00:53:15;;;;;;;12.20;4.80;;;5.70;57.60;;;;;;5093716;28;20545;-84
2023/12/24 00:55:41;;;;;;;10.27;4.50;;;5.80;57.80;;;;;;5094409;28;20171;-84
2023/12/24 00:58:07;;;;;;;9.77;4.43;;;6.00;57.90;;;;;;5094842;28;20242;-84
2023/12/24 01:00:33;;;;;;;12.47;4.77;;;5.80;57.50;;;;;;5091322;28;20684;-84
2023/12/24 01:03:17;;;;;;;7.53;4.50;;;5.80;57.40;;;;;;5089324;28;20176;-85
2023/12/24 01:05:42;;;;;;;9.50;4.80;;;5.90;57.50;;;;;;5105707;28;20183;-83
2023/12/24 01:08:08;;;;;;;10.67;4.93;;;5.80;57.40;;;;;;5094342;28;20190;-85
2023/12/24 01:10:33;;;;;;;8.70;4.70;;;5.90;57.10;;;;;;5112228;28;20240;-84
2023/12/24 01:12:59;;;;;;;10.10;4.20;;;5.70;56.90;;;;;;5091900;28;20254;-83
2023/12/24 01:15:25;;;;;;;8.83;4.43;;;5.90;57.00;;;;;;5084012;28;20180;-84
2023/12/24 01:17:50;;;;;;;12.93;4.40;;;5.70;56.80;;;;;;5088192;28;20518;-83
2023/12/24 01:20:16;;;;;;;8.17;4.20;;;5.80;56.80;;;;;;5101622;28;20242;-85
2023/12/24 01:22:42;;;;;;;12.27;4.83;;;5.70;56.90;;;;;;5094298;28;20190;-84
2023/12/24 01:25:11;;;;;;;9.30;3.90;;;5.70;56.90;;;;;;5087951;28;20251;-84
2023/12/24 01:27:37;;;;;;;9.27;4.07;;;5.70;56.70;;;;;;5085715;28;20276;-84
2023/12/24 01:30:04;;;;;;;12.13;4.97;;;5.60;56.60;;;;;;5081274;28;20259;-83
2023/12/24 01:32:29;;;;;;;11.53;4.83;;;5.60;56.60;;;;;;5082074;28;20179;-84
2023/12/24 01:34:55;;;;;;;9.37;4.03;;;5.60;56.60;;;;;;5097455;28;20541;-84
2023/12/24 01:37:21;;;;;;;12.63;5.00;;;5.60;56.40;;;;;;5083800;28;20179;-84
2023/12/24 01:39:46;;;;;;;8.93;4.07;;;5.70;56.40;;;;;;5111971;28;20207;-83
2023/12/24 01:42:12;;;;;;;6.80;4.40;;;5.70;56.40;;;;;;5093461;28;20206;-85
2023/12/24 01:44:37;;;;;;;9.30;5.07;;;5.50;56.00;;;;;;5089485;28;20237;-84
2023/12/24 01:47:04;;;;;;;8.00;4.67;;;5.40;55.70;;;;;;5092704;28;20233;-83
2023/12/24 01:49:30;;;;;;;14.27;5.27;;;5.40;56.00;;;;;;5110889;28;20211;-84
2023/12/24 01:51:56;;;;;;;11.17;5.57;;;5.40;56.40;;;;;;5093826;28;20202;-85
2023/12/24 01:54:22;;;;;;;8.07;4.77;;;5.50;56.20;;;;;;5089580;28;20444;-85
2023/12/24 01:56:48;;;;;;;9.27;4.50;;;5.60;56.20;;;;;;5088517;28;20258;-85
2023/12/24 01:59:15;;;;;;;10.13;4.50;;;5.70;56.30;;;;;;5091071;28;20173;-84
2023/12/24 02:01:41;;;;;;;9.63;4.13;;;5.70;56.60;;;;;;5103495;28;20212;-83
2023/12/24 02:04:07;;;;;;;7.27;3.60;;;5.70;56.00;;;;;;5074348;28;20934;-83
2023/12/24 02:06:34;;;;;;;6.40;3.93;;;5.60;55.90;;;;;;5091324;28;20637;-84
2023/12/24 02:09:00;;;;;;;9.03;4.23;;;5.60;55.70;;;;;;5107544;28;20175;-83
2023/12/24 02:11:26;;;;;;;11.33;4.13;;;5.40;55.30;;;;;;5111111;28;20238;-83
2023/12/24 02:13:52;;;;;;;5.40;3.33;;;5.40;55.60;;;;;;5125388;28;20649;-83
2023/12/24 02:16:20;;;;;;;8.20;4.33;;;5.50;56.00;;;;;;5078460;28;20645;-84
2023/12/24 02:18:46;;;;;;;7.87;4.07;;;5.40;55.80;;;;;;5100498;28;20187;-84
2023/12/24 02:21:11;;;;;;;6.70;4.00;;;5.40;55.60;;;;;;5090335;28;20204;-83
2023/12/24 02:23:37;;;;;;;7.87;4.43;;;5.40;55.80;;;;;;5093266;28;20245;-84
2023/12/24 02:26:15;;;;;;;6.77;4.00;;;5.40;56.00;;;;;;5092143;28;20180;-84
2023/12/24 02:28:45;;;;;;;9.20;4.77;;;5.40;56.10;;;;;;5108644;28;20185;-84
2023/12/24 02:31:12;;;;;;;7.73;4.33;;;5.50;56.00;;;;;;5080392;28;20269;-85
2023/12/24 02:33:41;;;;;;;8.60;5.40;;;5.50;56.20;;;;;;5100224;28;20191;-85
2023/12/24 02:36:09;;;;;;;10.47;4.47;;;5.50;56.20;;;;;;5082107;28;20269;-84
2023/12/24 02:38:35;;;;;;;7.10;4.50;;;5.50;56.60;;;;;;5081152;28;20275;-83
2023/12/24 02:41:01;;;;;;;9.13;4.83;;;5.50;56.20;;;;;;5088437;28;20294;-84
2023/12/24 02:43:27;;;;;;;9.93;4.13;;;5.40;56.00;;;;;;5082913;28;20176;-84
2023/12/24 02:45:52;;;;;;;11.47;4.60;;;5.60;56.30;;;;;;5108520;28;20176;-85
2023/12/24 02:48:18;;;;;;;6.63;3.80;;;5.50;56.20;;;;;;5106799;28;20561;-83
2023/12/24 02:50:44;;;;;;;6.03;3.93;;;5.40;56.00;;;;;;5090066;28;20184;-85
2023/12/24 02:53:10;;;;;;;13.27;4.20;;;5.50;56.10;;;;;;5091197;28;20634;-83
2023/12/24 02:55:36;;;;;;;8.63;4.00;;;5.30;56.10;;;;;;5089362;28;20221;-83
2023/12/24 02:58:01;;;;;;;7.63;3.60;;;5.30;56.30;;;;;;5087091;28;20183;-84
2023/12/24 03:00:27;;;;;;;8.77;4.13;;;5.30;56.30;;;;;;5086161;28;20685;-83
2023/12/24 03:02:53;;;;;;;6.57;3.30;;;5.30;56.30;;;;;;5092931;28;20176;-84
2023/12/24 03:05:18;;;;;;;11.60;4.33;;;5.30;56.30;;;;;;5106086;28;20187;-83
2023/12/24 03:07:44;;;;;;;6.87;3.80;;;5.40;56.30;;;;;;5098233;28;20169;-84
2023/12/24 03:10:09;;;;;;;7.67;3.77;;;5.40;56.30;;;;;;5096062;28;20689;-84
2023/12/24 03:12:35;;;;;;;9.43;3.57;;;5.40;56.30;;;;;;5091971;28;20216;-83
2023/12/24 03:15:01;;;;;;;10.33;4.10;;;5.30;56.30;;;;;;5104249;28;20183;-83
2023/12/24 03:17:26;;;;;;;7.43;4.00;;;5.30;56.60;;;;;;5093815;28;20222;-84
2023/12/24 03:19:52;;;;;;;8.83;3.43;;;5.20;56.40;;;;;;5096697;28;20227;-84
2023/12/24 03:22:17;;;;;;;9.97;3.80;;;5.20;56.50;;;;;;5090249;28;20169;-84
2023/12/24 03:24:43;;;;;;;8.70;3.67;;;5.30;56.60;;;;;;5110599;28;20184;-84
2023/12/24 03:27:09;;;;;;;8.83;3.83;;;5.30;56.60;;;;;;5091667;28;20187;-84
2023/12/24 03:29:34;;;;;;;7.40;3.93;;;5.30;56.70;;;;;;5096189;28;20185;-84
2023/12/24 03:32:00;;;;;;;11.40;4.10;;;5.20;56.50;;;;;;5086374;28;20169;-85
2023/12/24 03:34:25;;;;;;;8.70;4.03;;;5.20;56.60;;;;;;5100649;27;20655;-84
2023/12/24 03:36:51;;;;;;;9.10;4.37;;;5.20;56.60;;;;;;5095512;28;20192;-84
2023/12/24 03:39:16;;;;;;;14.10;4.40;;;5.20;56.80;;;;;;5110219;28;20255;-84
2023/12/24 03:41:42;;;;;;;8.30;3.67;;;5.10;56.70;;;;;;5083863;28;20212;-84
2023/12/24 03:44:08;;;;;;;8.83;3.63;;;5.10;57.00;;;;;;5114125;28;20195;-85
2023/12/24 03:46:33;;;;;;;13.50;4.53;;;5.20;57.10;;;;;;5087368;28;20172;-84
2023/12/24 03:48:59;;;;;;;9.83;3.90;;;5.10;57.00;;;;;;5111546;28;20180;-84
2023/12/24 03:51:25;;;;;;;7.30;3.40;;;5.00;57.10;;;;;;5111044;28;20699;-84
2023/12/24 03:53:50;;;;;;;8.53;4.20;;;5.00;57.20;;;;;;5094795;28;20253;-83
2023/12/24 03:56:16;;;;;;;9.53;3.87;;;5.00;57.30;;;;;;5080285;28;20222;-84
2023/12/24 03:58:41;;;;;;;9.67;3.80;;;5.10;57.40;;;;;;5093293;28;20671;-84
2023/12/24 04:01:11;;;;;;;8.33;3.83;;;5.10;57.30;;;;;;5090990;28;20262;-84
2023/12/24 04:03:37;;;;;;;8.70;3.20;;;5.30;57.60;;;;;;5086660;28;20188;-84
2023/12/24 04:06:15;;;;;;;9.87;4.13;;;5.10;57.30;;;;;;5084889;28;20183;-84
2023/12/24 04:08:40;;;;;;;11.40;3.80;;;5.20;57.40;;;;;;5113482;28;20629;-84
2023/12/24 04:11:16;;;;;;;6.37;4.03;;;5.20;57.40;;;;;;5078282;28;20224;-84
2023/12/24 04:13:42;;;;;;;11.20;3.83;;;5.30;57.40;;;;;;5082146;28;20195;-84
2023/12/24 04:16:08;;;;;;;6.73;3.80;;;5.30;57.20;;;;;;5104141;28;20181;-83
2023/12/24 04:18:34;;;;;;;5.13;3.27;;;5.20;57.00;;;;;;5107103;28;20284;-84
2023/12/24 04:21:00;;;;;;;9.17;3.80;;;5.30;57.20;;;;;;5112728;28;20689;-84
2023/12/24 04:23:26;;;;;;;8.17;3.93;;;5.30;57.30;;;;;;5095442;28;20183;-84
2023/12/24 04:25:52;;;;;;;8.57;4.13;;;5.30;57.00;;;;;;5080756;28;20194;-84
2023/12/24 04:28:17;;;;;;;6.70;3.60;;;5.40;57.10;;;;;;5089620;28;20266;-85
2023/12/24 04:30:43;;;;;;;6.43;3.70;;;5.30;56.80;;;;;;5095579;28;20182;-84
2023/12/24 04:33:09;;;;;;;9.47;3.97;;;5.20;57.00;;;;;;5094788;28;20175;-84
2023/12/24 04:35:34;;;;;;;9.90;3.93;;;5.30;57.30;;;;;;5079299;28;20247;-84
2023/12/24 04:38:00;;;;;;;8.17;3.60;;;5.40;57.10;;;;;;5082090;27;20673;-84
2023/12/24 04:40:26;;;;;;;8.57;3.80;;;5.30;56.90;;;;;;5119654;27;20214;-84
2023/12/24 04:42:51;;;;;;;7.60;3.40;;;5.30;57.00;;;;;;5098221;28;20187;-83
2023/12/24 04:45:17;;;;;;;8.27;3.60;;;5.30;57.00;;;;;;5083518;28;20267;-84
2023/12/24 04:47:42;;;;;;;10.93;4.03;;;5.30;56.90;;;;;;5097821;28;20868;-83
2023/12/24 04:50:08;;;;;;;5.73;3.83;;;5.40;57.00;;;;;;5079165;28;20176;-83
2023/12/24 04:52:35;;;;;;;8.83;3.90;;;5.30;56.80;;;;;;5087401;28;20183;-84
2023/12/24 04:55:03;;;;;;;7.80;3.80;;;5.30;56.90;;;;;;5095196;28;20207;-84
2023/12/24 04:57:28;;;;;;;7.60;3.87;;;5.50;57.10;;;;;;5107775;28;20237;-84
2023/12/24 04:59:54;;;;;;;8.00;3.73;;;5.40;56.90;;;;;;5084059;28;20726;-84
2023/12/24 05:02:19;;;;;;;8.67;3.67;;;5.40;56.70;;;;;;5093929;28;20174;-84
2023/12/24 05:04:45;;;;;;;7.87;3.23;;;5.30;56.90;;;;;;5093746;28;20183;-84
2023/12/24 05:07:10;;;;;;;8.33;3.43;;;5.30;57.00;;;;;;5086183;28;20208;-85
2023/12/24 05:09:39;;;;;;;9.33;3.67;;;5.40;57.10;;;;;;5110310;28;20564;-83
2023/12/24 05:12:05;;;;;;;6.60;3.23;;;5.30;56.80;;;;;;5102902;27;20313;-82
2023/12/24 05:14:35;;;;;;;7.23;3.97;;;5.30;56.90;;;;;;5092918;28;20684;-81
2023/12/24 05:17:04;;;;;;;11.67;4.00;;;5.40;57.20;;;;;;5108919;28;20175;-82
2023/12/24 05:19:30;;;;;;;7.03;3.57;;;5.30;56.80;;;;;;5089557;28;20627;-81
2023/12/24 05:21:55;;;;;;;8.33;3.33;;;5.30;56.80;;;;;;5089452;28;20217;-82
2023/12/24 05:24:21;;;;;;;8.27;3.60;;;5.30;56.80;;;;;;5088527;28;20211;-82
2023/12/24 05:26:47;;;;;;;11.30;3.83;;;5.30;56.90;;;;;;5110635;28;20226;-81
2023/12/24 05:29:13;;;;;;;7.63;3.80;;;5.30;56.90;;;;;;5094503;28;20196;-82
2023/12/24 05:31:41;;;;;;;5.50;3.57;;;5.30;56.90;;;;;;5112718;28;20186;-82
2023/12/24 05:34:10;;;;;;;8.23;3.97;;;5.30;57.00;;;;;;5109562;28;20224;-82
2023/12/24 05:36:38;;;;;;;10.53;4.00;;;5.30;57.10;;;;;;5114274;27;20229;-82
2023/12/24 05:39:05;;;;;;;7.50;3.50;;;5.30;57.00;;;;;;5080050;28;20556;-82
2023/12/24 05:41:31;;;;;;;9.37;3.80;;;5.30;57.10;;;;;;5093735;28;20203;-82
2023/12/24 05:43:58;;;;;;;11.90;4.10;;;5.40;57.20;;;;;;5081064;28;20176;-80
2023/12/24 05:46:24;;;;;;;6.47;3.97;;;5.40;57.20;;;;;;5083605;28;20230;-82
2023/12/24 05:48:50;;;;;;;10.43;4.43;;;5.40;57.00;;;;;;5100326;28;20188;-84
2023/12/24 05:51:16;;;;;;;7.93;4.30;;;5.40;57.20;;;;;;5086488;28;20545;-84
2023/12/24 05:53:42;;;;;;;10.87;3.97;;;5.50;57.20;;;;;;5084160;28;20657;-84
2023/12/24 05:56:08;;;;;;;7.80;3.63;;;5.40;57.00;;;;;;5082246;28;20176;-84
2023/12/24 05:58:34;;;;;;;9.40;4.20;;;5.40;57.20;;;;;;5112038;27;20336;-84
2023/12/24 06:01:00;;;;;;;6.60;4.07;;;5.50;57.20;;;;;;5098945;27;20732;-84
2023/12/24 06:03:25;;;;;;;8.87;4.17;;;5.50;56.90;;;;;;5088167;28;20228;-84
2023/12/24 06:05:51;;;;;;;6.40;3.87;;;5.50;56.90;;;;;;5089527;28;20179;-84
2023/12/24 06:08:17;;;;;;;10.87;3.90;;;5.50;57.10;;;;;;5078775;28;20176;-84
2023/12/24 06:10:43;;;;;;;7.70;3.90;;;5.50;57.10;;;;;;5084891;28;20198;-85
2023/12/24 06:13:09;;;;;;;6.47;3.57;;;5.60;57.20;;;;;;5086466;28;20712;-84
2023/12/24 06:15:34;;;;;;;7.03;3.80;;;5.50;57.10;;;;;;5082592;28;20227;-84
2023/12/24 06:18:01;;;;;;;8.30;4.13;;;5.50;57.00;;;;;;5080233;28;20286;-85
2023/12/24 06:20:29;;;;;;;7.30;4.57;;;5.60;57.20;;;;;;5089021;28;20214;-82
2023/12/24 06:22:55;;;;;;;9.30;4.23;;;5.50;57.00;;;;;;5093826;28;20183;-83
2023/12/24 06:25:21;;;;;;;9.17;4.27;;;5.50;57.00;;;;;;5105575;28;20661;-85
2023/12/24 06:28:02;;;;;;;11.17;4.13;;;5.50;56.90;;;;;;5089239;28;20183;-84
2023/12/24 06:30:28;;;;;;;8.73;4.37;;;5.50;57.10;;;;;;5093998;28;20198;-83
2023/12/24 06:32:53;;;;;;;6.73;4.30;;;5.70;57.30;;;;;;5083173;28;20187;-84
2023/12/24 06:35:21;;;;;;;11.77;5.60;;;5.80;57.80;;;;;;5092061;28;20596;-85
2023/12/24 06:37:46;;;;;;;10.93;5.20;;;5.70;57.20;;;;;;5095953;28;20262;-83
2023/12/24 06:40:12;;;;;;;7.23;3.97;;;5.70;57.00;;;;;;5113907;28;20340;-83
2023/12/24 06:42:38;;;;;;;9.80;5.73;;;5.60;57.10;;;;;;5085442;28;20181;-84
2023/12/24 06:45:04;;;;;;;17.23;7.00;;;5.70;57.20;;;;;;5097564;28;20229;-86
2023/12/24 06:47:29;;;;;;;14.03;5.83;;;5.60;57.10;;;;;;5099819;28;21315;-82
2023/12/24 06:49:55;;;;;;;9.57;5.40;;;5.60;57.10;;;;;;5107239;28;20179;-85
2023/12/24 06:52:21;;;;;;;12.67;5.57;;;5.60;57.30;;;;;;5085511;28;20176;-83
2023/12/24 06:54:47;;;;;;;9.70;5.13;;;5.60;57.40;;;;;;5081873;28;20187;-84
2023/12/24 06:57:13;;;;;;;11.23;5.50;;;5.70;57.40;;;;;;5096395;28;20180;-84
2023/12/24 06:59:38;;;;;;;11.83;5.93;;;5.60;57.30;;;;;;5094235;28;20186;-85
2023/12/24 07:02:04;;;;;;;11.47;5.47;;;5.70;57.40;;;;;;5095129;28;20640;-83
2023/12/24 07:04:30;;;;;;;11.53;6.40;;;5.70;57.40;;;;;;5092260;28;20180;-84
2023/12/24 07:06:55;;;;;;;13.50;6.77;;;5.70;57.40;;;;;;5091782;28;20562;-83
2023/12/24 07:09:21;;;;;;;14.70;6.10;;;5.70;57.40;;;;;;5096294;28;20255;-83
2023/12/24 07:11:46;;;;;;;16.87;7.00;;;5.70;57.40;;;;;;5080302;28;20274;-83
2023/12/24 07:14:12;;;;;;;14.00;6.47;;;5.80;57.60;;;;;;5097039;28;20313;-83
2023/12/24 07:16:37;;;;;;;13.93;6.67;;;5.80;57.50;;;;;;5087736;28;20187;-83
2023/12/24 07:19:07;;;;;;;9.67;6.17;;;5.90;57.40;;;;;;5100840;28;20184;-82
2023/12/24 07:21:33;;;;;;;13.43;6.07;;;5.80;57.50;;;;;;5081851;28;20214;-83
2023/12/24 07:23:58;;;;;;;12.00;6.27;;;5.80;57.60;;;;;;5095905;28;20175;-82
2023/12/24 07:26:24;;;;;;;15.67;6.47;;;5.80;57.60;;;;;;5094867;28;20544;-83
2023/12/24 07:28:51;;;;;;;10.37;6.33;;;6.00;57.80;;;;;;5087693;28;20183;-82
2023/12/24 07:31:17;;;;;;;11.23;6.70;;;5.90;57.80;;;;;;5083189;28;20180;-83
2023/12/24 07:33:42;;;;;;;15.57;6.50;;;5.90;57.80;;;;;;5084522;28;20182;-83
2023/12/24 07:36:08;;;;;;;14.13;6.40;;;5.90;57.80;;;;;;5114025;27;20215;-83
2023/12/24 07:38:34;;;;;;;11.83;6.30;;;6.00;57.80;;;;;;5096802;28;20202;-82
2023/12/24 07:41:00;;;;;;;11.80;6.07;;;6.00;57.80;;;;;;5089011;28;20277;-84
2023/12/24 07:43:28;;;;;;;10.80;6.10;;;6.00;57.80;;;;;;5091535;27;20202;-82
2023/12/24 07:45:54;;;;;;;14.37;6.47;;;5.90;57.60;;;;;;5101258;28;20183;-84
2023/12/24 07:48:19;;;;;;;16.13;6.63;;;6.10;57.90;;;;;;5092449;28;20190;-83
2023/12/24 07:50:45;;;;;;;13.00;6.53;;;5.90;57.80;;;;;;5083422;28;20521;-83
2023/12/24 07:53:11;;;;;;;9.77;6.23;;;5.90;57.90;;;;;;5095274;28;20175;-82
2023/12/24 07:55:36;;;;;;;13.37;6.77;;;5.90;57.90;;;;;;5095432;28;20186;-82
2023/12/24 07:58:02;;;;;;;11.93;6.80;;;6.00;58.10;;;;;;5113558;27;20622;-83
2023/12/24 08:00:29;;;;;;;12.40;7.27;;;6.00;58.10;;;;;;5094019;28;20211;-83
2023/12/24 08:02:54;;;;;;;19.37;7.03;;;6.10;58.00;;;;;;5078917;27;20172;-82
2023/12/24 08:05:20;;;;;;;9.80;6.30;;;6.00;58.00;;;;;;5093531;28;20236;-83
2023/12/24 08:07:45;;;;;;;14.60;8.13;;;6.10;58.10;;;;;;5087113;28;20180;-83
2023/12/24 08:10:11;;;;;;;13.93;6.70;;;6.10;58.10;;;;;;5091627;28;20180;-83
2023/12/24 08:12:37;;;;;;;12.93;7.07;;;6.10;58.10;;;;;;5114194;28;20223;-83
2023/12/24 08:15:02;;;;;;;11.13;7.13;;;6.20;58.20;;;;;;5095222;28;20568;-83
2023/12/24 08:17:28;;;;;;;9.33;6.73;;;6.20;58.20;;;;;;5082910;28;20214;-84
2023/12/24 08:19:54;;;;;;;12.97;6.60;;;6.20;58.10;;;;;;5089058;28;20183;-82
2023/12/24 08:22:20;;;;;;;12.93;6.90;;;6.30;58.20;;;;;;5091054;28;20236;-82
2023/12/24 08:24:46;;;;;;;15.37;7.97;;;6.30;58.30;;;;;;5113917;27;20192;-84
2023/12/24 08:27:12;;;;;;;13.23;6.90;;;6.30;58.20;;;;;;5091216;28;20572;-83
2023/12/24 08:29:37;;;;;;;14.83;6.70;;;6.50;58.20;;;;;;5081293;28;20180;-82
2023/12/24 08:32:03;;;;;;;11.07;7.10;;;6.30;58.10;;;;;;5093416;28;20210;-84
2023/12/24 08:34:29;;;;;;;15.73;7.67;;;6.30;58.10;;;;;;5113123;28;20233;-82
2023/12/24 08:36:54;;;;;;;17.27;8.10;;;6.40;58.30;;;;;;5091331;28;20180;-82
2023/12/24 08:39:20;;;;;;;16.47;7.80;;;6.40;58.40;;;;;;5086828;28;20184;-82
2023/12/24 08:41:46;;;;;;;13.80;7.93;;;6.40;58.10;;;;;;5081890;28;20196;-84
2023/12/24 08:44:11;;;;;;;13.87;7.53;;;6.60;58.20;;;;;;5093956;28;20248;-82
2023/12/24 08:46:37;;;;;;;18.20;8.03;;;6.50;58.20;;;;;;5089211;28;20187;-83
2023/12/24 08:49:02;;;;;;;13.70;7.20;;;6.50;58.40;;;;;;5094291;28;20184;-82
2023/12/24 08:51:28;;;;;;;12.43;7.20;;;6.70;58.40;;;;;;5094986;28;20191;-83
2023/12/24 08:53:53;;;;;;;14.17;7.17;;;6.70;58.40;;;;;;5094489;28;20167;-82
2023/12/24 08:56:19;;;;;;;15.13;8.00;;;6.60;58.40;;;;;;5088349;28;20546;-82
2023/12/24 08:58:45;;;;;;;11.37;7.30;;;6.70;58.40;;;;;;5106213;28;20182;-84
2023/12/24 09:01:10;;;;;;;11.23;6.73;;;6.70;58.20;;;;;;5097483;28;20208;-83
2023/12/24 09:03:36;;;;;;;10.63;7.57;;;6.60;58.20;;;;;;5094451;28;20211;-83
2023/12/24 09:06:01;;;;;;;12.63;7.30;;;6.80;58.40;;;;;;5079475;28;20737;-83
2023/12/24 09:08:27;;;;;;;17.77;7.50;;;6.70;58.80;;;;;;5100293;28;20172;-82
2023/12/24 09:10:53;;;;;;;10.83;7.03;;;6.80;58.50;;;;;;5107050;27;20228;-82
2023/12/24 09:13:18;;;;;;;14.43;7.63;;;6.70;58.40;;;;;;5092292;28;20176;-83
2023/12/24 09:15:45;;;;;;;11.90;7.60;;;6.80;58.50;;;;;;5116641;27;20581;-82
2023/12/24 09:18:11;;;;;;;12.17;8.37;;;6.90;59.00;;;;;;5091984;28;20183;-84
2023/12/24 09:20:36;;;;;;;15.87;7.63;;;6.90;58.20;;;;;;5090341;28;20203;-82
2023/12/24 09:23:02;;;;;;;15.23;8.03;;;6.90;58.20;;;;;;5094693;28;20587;-83
2023/12/24 09:25:27;;;;;;;17.90;8.93;;;6.90;58.40;;;;;;5084322;28;20184;-82
2023/12/24 09:27:53;;;;;;;12.87;8.07;;;7.00;58.30;;;;;;5100270;27;20305;-83
2023/12/24 09:30:19;;;;;;;17.93;8.53;;;7.00;58.20;;;;;;5089028;28;20177;-83
2023/12/24 09:32:44;;;;;;;17.10;8.27;;;7.00;58.20;;;;;;5087795;28;20180;-83
2023/12/24 09:35:10;;;;;;;18.83;8.30;;;6.90;58.10;;;;;;5094426;28;20168;-82
2023/12/24 09:37:36;;;;;;;13.47;8.37;;;7.00;58.20;;;;;;5093978;28;20182;-84
2023/12/24 09:40:01;;;;;;;16.60;8.63;;;7.10;58.20;;;;;;5093722;28;20179;-83
2023/12/24 09:42:27;;;;;;;16.37;8.87;;;7.10;58.30;;;;;;5093077;28;20183;-84
2023/12/24 09:44:52;;;;;;;16.83;9.13;;;7.10;58.20;;;;;;5093046;28;20244;-83
2023/12/24 09:47:18;;;;;;;17.20;8.77;;;7.20;58.30;;;;;;5084027;28;20180;-83
2023/12/24 09:49:43;;;;;;;17.13;9.33;;;7.20;58.30;;;;;;5084377;28;20226;-82
2023/12/24 09:52:09;;;;;;;17.07;9.30;;;7.10;58.10;;;;;;5081642;28;20183;-84
2023/12/24 09:54:35;;;;;;;18.63;9.27;;;7.10;58.20;;;;;;5110113;28;20175;-82
2023/12/24 09:57:00;;;;;;;14.77;9.50;;;7.20;58.20;;;;;;5106084;28;20210;-83
2023/12/24 09:59:26;;;;;;;15.07;9.67;;;7.20;58.00;;;;;;5101804;28;20559;-84
2023/12/24 10:01:52;;;;;;;20.47;11.03;;;7.20;57.80;;;;;;5101268;28;20210;-84
2023/12/24 10:04:18;;;;;;;18.47;10.70;;;7.30;57.90;;;;;;5107936;28;20192;-83
2023/12/24 10:06:54;;;;;;;16.80;10.93;;;7.10;57.90;;;;;;5106074;28;20191;-83
2023/12/24 10:09:21;;;;;;;18.87;10.43;;;7.20;58.10;;;;;;5109727;27;20254;-82
2023/12/24 10:12:06;;;;;;;18.03;11.47;;;7.20;58.20;;;;;;5103188;28;20215;-83
2023/12/24 10:14:32;;;;;;;19.93;11.90;;;7.30;57.80;;;;;;5081392;28;20241;-83
2023/12/24 10:17:00;;;;;;;16.60;11.67;;;7.30;57.90;;;;;;5083664;28;20214;-83
2023/12/24 10:19:27;;;;;;;15.63;10.73;;;7.30;58.00;;;;;;5106704;28;20182;-82
2023/12/24 10:22:05;;;;;;;19.30;10.80;;;7.30;57.80;;;;;;5092154;28;20203;-83
2023/12/24 10:24:38;;;;;;;16.03;10.97;;;7.20;57.70;;;;;;5106966;28;20219;-83
2023/12/24 10:27:04;;;;;;;17.87;11.50;;;7.10;57.50;;;;;;5101838;28;20167;-83
2023/12/24 10:29:30;;;;;;;15.57;11.70;;;7.10;57.80;;;;;;5087429;28;20212;-83
2023/12/24 10:31:56;;;;;;;18.27;11.17;;;7.10;57.90;;;;;;5086575;28;20203;-83
2023/12/24 10:34:22;;;;;;;17.30;11.47;;;7.10;58.00;;;;;;5091056;28;20225;-83
2023/12/24 10:36:48;;;;;;;20.60;12.73;;;7.10;57.70;;;;;;5083259;28;20180;-84
2023/12/24 10:39:18;;;;;;;15.10;9.63;;;7.30;58.10;;;;;;5095979;28;20250;-85
2023/12/24 10:41:43;;;;;;;12.20;10.13;;;7.20;58.10;;;;;;5099031;28;20207;-82
2023/12/24 10:44:09;;;;;;;15.30;10.67;;;7.40;58.30;;;;;;5102303;28;20529;-83
2023/12/24 10:46:35;;;;;;;18.37;11.13;;;7.40;58.20;;;;;;5083450;28;20185;-84
2023/12/24 10:49:00;;;;;;;14.37;10.33;;;7.40;58.00;;;;;;5089384;28;20187;-85
2023/12/24 10:51:26;;;;;;;18.33;11.77;;;7.50;58.00;;;;;;5076473;28;20258;-84
2023/12/24 10:53:53;;;;;;;17.03;11.97;;;7.50;58.00;;;;;;5089813;28;20179;-83
2023/12/24 10:56:30;;;;;;;14.77;10.27;;;7.40;57.90;;;;;;5089742;28;20223;-84
2023/12/24 10:58:59;;;;;;;14.70;10.80;;;7.50;58.00;;;;;;5090159;28;20184;-83
2023/12/24 11:01:25;;;;;;;13.67;10.80;;;7.40;57.50;;;;;;5076521;28;20235;-83
2023/12/24 11:03:52;;;;;;;12.97;10.70;;;7.40;57.50;;;;;;5087633;28;20211;-83
2023/12/24 11:06:36;;;;;;;13.90;9.83;;;7.50;57.60;;;;;;5093583;28;20211;-83
2023/12/24 11:09:31;;;;;;;13.93;9.40;;;7.50;57.60;;;;;;5092588;28;20186;-83
2023/12/24 11:11:58;;;;;;;14.50;10.10;;;7.40;57.00;;;;;;5085516;28;20215;-84
2023/12/24 11:14:36;;;;;;;13.93;9.47;;;7.20;57.10;;;;;;5086167;28;20551;-84
2023/12/24 11:17:02;;;;;;;17.00;10.50;;;7.30;57.60;;;;;;5085675;28;20614;-84
2023/12/24 11:19:28;;;;;;;12.60;9.20;;;7.30;57.40;;;;;;5092769;28;20215;-85
2023/12/24 11:22:11;;;;;;;11.33;9.73;;;7.30;57.40;;;;;;5108576;27;20215;-83
2023/12/24 11:24:44;;;;;;;12.90;9.10;;;7.30;57.50;;;;;;5086276;28;20186;-84
2023/12/24 11:27:10;;;;;;;14.77;9.73;;;7.40;57.50;;;;;;5093917;28;20172;-84
2023/12/24 11:29:50;;;;;;;14.80;10.10;;;7.30;57.30;;;;;;5089839;28;20218;-84
2023/12/24 11:32:29;;;;;;;13.63;9.60;;;7.40;58.00;;;;;;5084997;28;20184;-85
2023/12/24 11:34:58;;;;;;;10.03;8.80;;;7.30;57.30;;;;;;5085614;28;20188;-86
2023/12/24 11:37:29;;;;;;;10.13;8.20;;;7.30;57.10;;;;;;5104819;28;20267;-85
2023/12/24 11:40:08;;;;;;;10.00;7.97;;;7.20;57.10;;;;;;5095796;28;20545;-83
2023/12/24 11:42:43;;;;;;;9.67;7.87;;;7.20;57.30;;;;;;5093451;28;20175;-89
2023/12/24 11:45:21;;;;;;;11.07;8.63;;;7.30;57.20;;;;;;5095765;28;20171;-87
2023/12/24 11:47:47;;;;;;;9.57;7.73;;;7.20;57.10;;;;;;5095702;28;20278;-85
2023/12/24 11:50:13;;;;;;;10.30;7.33;;;7.30;57.40;;;;;;5096154;28;20278;-86
2023/12/24 11:52:46;;;;;;;11.50;7.20;;;7.40;57.40;;;;;;5093668;28;20207;-91
2023/12/24 11:55:16;;;;;;;9.37;7.43;;;7.30;57.20;;;;;;5098396;28;20222;-89
2023/12/24 11:57:42;;;;;;;9.27;6.20;;;7.30;57.40;;;;;;5096595;28;20275;-85
2023/12/24 12:00:25;;;;;;;8.03;5.57;;;7.50;57.40;;;;;;5109249;28;20228;-83
2023/12/24 12:03:00;;;;;;;7.80;5.90;;;7.40;57.20;;;;;;5083302;28;20334;-85
2023/12/24 12:05:26;;;;;;;7.97;5.53;;;7.40;57.00;;;;;;5083525;28;20191;-85
2023/12/24 12:07:52;;;;;;;6.90;4.80;;;7.30;57.10;;;;;;5107020;28;20178;-83
2023/12/24 12:10:18;;;;;;;7.97;4.77;;;7.40;57.20;;;;;;5091587;28;20241;-83
2023/12/24 12:12:44;;;;;;;5.93;5.23;;;7.50;57.00;;;;;;5107925;28;20223;-82
2023/12/24 12:15:11;;;;;;;8.30;5.67;;;7.40;56.70;;;;;;5095431;28;20266;-83
2023/12/24 12:17:37;;;;;;;6.53;4.93;;;7.40;57.00;;;;;;5112573;28;20183;-83
2023/12/24 12:20:04;;;;;;;5.77;4.47;;;7.40;57.00;;;;;;5092097;28;20188;-83
2023/12/24 12:22:30;;;;;;;6.77;5.00;;;7.40;56.70;;;;;;5097342;28;20191;-83
2023/12/24 12:24:55;;;;;;;7.67;5.17;;;7.30;56.40;;;;;;5079245;28;20183;-83
2023/12/24 12:27:21;;;;;;;7.40;5.60;;;7.40;56.80;;;;;;5093494;28;20534;-82
2023/12/24 12:29:47;;;;;;;9.27;5.83;;;7.30;56.70;;;;;;5091277;28;20211;-83
2023/12/24 12:32:12;;;;;;;9.47;6.17;;;7.30;56.90;;;;;;5092383;28;20180;-84
2023/12/24 12:34:39;;;;;;;9.07;6.53;;;7.30;57.00;;;;;;5094984;28;20179;-83
2023/12/24 12:37:05;;;;;;;8.97;7.03;;;7.40;57.10;;;;;;5096973;28;20202;-83
2023/12/24 12:39:30;;;;;;;10.33;8.13;;;7.40;57.10;;;;;;5080641;28;20618;-82
2023/12/24 12:41:57;;;;;;;12.30;8.33;;;7.50;57.20;;;;;;5083222;28;20568;-83
2023/12/24 12:44:23;;;;;;;10.73;7.83;;;7.50;57.20;;;;;;5083416;28;20676;-83
2023/12/24 12:46:49;;;;;;;10.73;7.73;;;7.60;57.00;;;;;;5083460;28;20176;-82
2023/12/24 12:49:15;;;;;;;11.43;7.30;;;7.60;57.00;;;;;;5097371;28;20625;-83